Time;durP1;ratioP1;P1;durP2;ratioP2;P2;SDS_P1;SDS_P2;PMS_P1;PMS_P2;Temp;Humidity;BMP_temperature;BMP_pressure;BME280_temperature;BME280_humidity;BME280_pressure;Samples;Min_cycle;Max_cycle;Signal;HPM_P1;HPM_P2
2021/12/06 00:02:10;;;;;;;;;;;;;;;;;;5042208;28;19924;-78
2021/12/06 00:04:38;;;;;;;;;;;;;;;;;;5042475;28;20126;-78
2021/12/06 00:07:05;;;;;;;;;;;;;;;;;;5053857;28;19925;-78
2021/12/06 00:09:32;;;;;;;;;;;;;;;;;;5051205;28;20390;-78
2021/12/06 00:12:01;;;;;;;;;;;;;;;;;;5055619;28;19935;-78
2021/12/06 00:14:29;;;;;;;;;;;;;;;;;;5047719;28;19925;-78
2021/12/06 00:16:56;;;;;;;;;;;;;;;;;;5046291;28;19932;-78
2021/12/06 00:19:23;;;;;;;;;;;;;;;;;;5044556;28;20020;-78
2021/12/06 00:21:50;;;;;;;;;;;;;;;;;;5046792;28;19925;-78
2021/12/06 00:24:17;;;;;;;;;;;;;;;;;;5049207;28;19977;-78
2021/12/06 00:26:44;;;;;;;;;;;;;;;;;;5051032;28;19933;-78
2021/12/06 00:29:11;;;;;;;;;;;;;;;;;;5038456;28;20003;-78
2021/12/06 00:31:38;;;;;;;;;;;;;;;;;;5049761;28;19928;-78
2021/12/06 00:34:07;;;;;;;;;;;;;;;;;;5044768;28;19966;-78
2021/12/06 00:36:37;;;;;;;;;;;;;;;;;;5051696;28;19956;-78
2021/12/06 00:39:04;;;;;;;;;;;;;;;;;;5040630;28;20402;-78
2021/12/06 00:41:31;;;;;;;;;;;;;;;;;;5044807;28;20421;-78
2021/12/06 00:43:59;;;;;;;;;;;;;;;;;;5052985;28;20355;-78
2021/12/06 00:46:29;;;;;;;;;;;;;;;;;;5045724;28;20397;-78
2021/12/06 00:48:56;;;;;;;;;;;;;;;;;;5039189;28;19925;-78
2021/12/06 00:51:23;;;;;;;;;;;;;;;;;;5045647;28;19933;-78
2021/12/06 00:53:50;;;;;;;;;;;;;;;;;;5042272;28;20020;-78
2021/12/06 00:56:17;;;;;;;;;;;;;;;;;;5042420;28;20378;-78
2021/12/06 00:58:44;;;;;;;;;;;;;;;;;;5048332;28;19987;-77
2021/12/06 01:01:11;;;;;;;;;;;;;;;;;;5051944;28;19928;-79
2021/12/06 01:03:38;;;;;;;;;;;;;;;;;;5040054;28;19925;-77
2021/12/06 01:06:05;;;;;;;;;;;;;;;;;;5043916;28;19968;-78
2021/12/06 01:08:32;;;;;;;;;;;;;;;;;;5043485;28;20000;-78
2021/12/06 01:10:59;;;;;;;;;;;;;;;;;;5051195;28;19925;-78
2021/12/06 01:13:26;;;;;;;;;;;;;;;;;;5051990;28;19925;-78
2021/12/06 01:15:54;;;;;;;;;;;;;;;;;;5047605;28;19932;-77
2021/12/06 01:18:21;;;;;;;;;;;;;;;;;;5054464;28;19931;-78
2021/12/06 01:20:53;;;;;;;;;;;;;;;;;;5044063;28;19952;-78
2021/12/06 01:23:23;;;;;;;;;;;;;;;;;;5051603;28;19924;-78
2021/12/06 01:25:58;;;;;;;;;;;;;;;;;;5043363;28;19925;-78
2021/12/06 01:29:03;;;;;;;;;;;;;;;;;;5050828;28;19968;-78
2021/12/06 01:31:42;;;;;;;;;;;;;;;;;;5052576;28;20035;-79
2021/12/06 01:39:09;;;;;;;;;;;;;;;;;;5044601;28;19925;-78
2021/12/06 01:39:58;;;;;;;;;;;;;;;;;;5028599;28;19925;-79
2021/12/06 01:42:25;;;;;;;;;;;;;;;;;;5038704;28;20043;-78
2021/12/06 01:44:52;;;;;;;;;;;;;;;;;;5038154;28;20020;-78
2021/12/06 01:47:19;;;;;;;;;;;;;;;;;;5042842;28;20463;-78
2021/12/06 01:49:46;;;;;;;;;;;;;;;;;;5048441;28;19980;-78
2021/12/06 01:52:13;;;;;;;;;;;;;;;;;;5058644;28;19986;-78
2021/12/06 01:54:40;;;;;;;;;;;;;;;;;;5047986;28;19960;-78
2021/12/06 01:57:07;;;;;;;;;;;;;;;;;;5052244;28;19986;-78
2021/12/06 01:59:34;;;;;;;;;;;;;;;;;;5052154;28;19931;-78
2021/12/06 02:02:01;;;;;;;;;;;;;;;;;;5047070;28;20019;-78
2021/12/06 02:04:28;;;;;;;;;;;;;;;;;;5049081;28;20268;-78
2021/12/06 02:06:55;;;;;;;;;;;;;;;;;;5050582;28;20335;-78
2021/12/06 02:09:26;;;;;;;;;;;;;;;;;;5046875;28;20006;-78
2021/12/06 02:11:54;;;;;;;;;;;;;;;;;;5047949;28;20432;-77
2021/12/06 02:14:29;;;;;;;;;;;;;;;;;;5039350;28;19952;-78
2021/12/06 02:17:04;;;;;;;;;;;;;;;;;;5048651;28;19925;-77
2021/12/06 02:19:34;;;;;;;;;;;;;;;;;;5047930;28;19928;-78
2021/12/06 02:22:01;;;;;;;;;;;;;;;;;;5052120;28;19957;-77
2021/12/06 02:24:28;;;;;;;;;;;;;;;;;;5052045;28;19925;-77
2021/12/06 02:26:55;;;;;;;;;;;;;;;;;;5048773;28;20024;-78
2021/12/06 02:29:22;;;;;;;;;;;;;;;;;;5046610;28;19960;-77
2021/12/06 02:31:49;;;;;;;;;;;;;;;;;;5047505;28;20389;-77
2021/12/06 02:34:16;;;;;;;;;;;;;;;;;;5055424;28;19979;-77
2021/12/06 02:36:45;;;;;;;;;;;;;;;;;;5050543;28;19929;-77
2021/12/06 02:39:19;;;;;;;;;;;;;;;;;;5050699;28;19968;-78
2021/12/06 02:41:48;;;;;;;;;;;;;;;;;;5051909;28;19925;-77
2021/12/06 02:44:15;;;;;;;;;;;;;;;;;;5050913;28;19968;-77
2021/12/06 02:46:42;;;;;;;;;;;;;;;;;;5049805;28;19987;-77
2021/12/06 02:49:09;;;;;;;;;;;;;;;;;;5051693;28;19925;-77
2021/12/06 02:51:37;;;;;;;;;;;;;;;;;;5053854;28;20378;-77
2021/12/06 02:54:04;;;;;;;;;;;;;;;;;;5052653;28;20280;-77
2021/12/06 02:56:33;;;;;;;;;;;;;;;;;;5055251;28;19924;-77
2021/12/06 02:59:00;;;;;;;;;;;;;;;;;;5052000;28;19933;-77
2021/12/06 03:01:28;;;;;;;;;;;;;;;;;;5049930;28;20390;-77
2021/12/06 03:03:55;;;;;;;;;;;;;;;;;;5057135;28;19928;-77
2021/12/06 03:06:22;;;;;;;;;;;;;;;;;;5047051;28;19925;-77
2021/12/06 03:08:52;;;;;;;;;;;;;;;;;;5049388;28;19925;-77
2021/12/06 03:11:19;;;;;;;;;;;;;;;;;;5050300;28;19983;-77
2021/12/06 03:13:46;;;;;;;;;;;;;;;;;;5052292;28;20313;-77
2021/12/06 03:16:13;;;;;;;;;;;;;;;;;;5048093;28;20287;-77
2021/12/06 03:18:41;;;;;;;;;;;;;;;;;;5047286;28;20437;-77
2021/12/06 03:21:08;;;;;;;;;;;;;;;;;;5052361;28;19983;-77
2021/12/06 03:23:35;;;;;;;;;;;;;;;;;;5048011;28;19975;-77
2021/12/06 03:26:02;;;;;;;;;;;;;;;;;;5049663;28;19947;-77
2021/12/06 03:28:29;;;;;;;;;;;;;;;;;;5045494;28;19964;-77
2021/12/06 03:30:57;;;;;;;;;;;;;;;;;;5044338;28;19977;-77
2021/12/06 03:33:24;;;;;;;;;;;;;;;;;;5043559;28;20023;-77
2021/12/06 03:35:51;;;;;;;;;;;;;;;;;;5046075;28;19925;-77
2021/12/06 03:38:18;;;;;;;;;;;;;;;;;;5043194;28;19933;-78
2021/12/06 03:40:45;;;;;;;;;;;;;;;;;;5053928;28;19979;-77
2021/12/06 03:43:13;;;;;;;;;;;;;;;;;;5044774;28;19925;-77
2021/12/06 03:45:40;;;;;;;;;;;;;;;;;;5051708;28;19924;-77
2021/12/06 03:48:07;;;;;;;;;;;;;;;;;;5050785;28;19924;-77
2021/12/06 03:50:34;;;;;;;;;;;;;;;;;;5064610;28;19924;-77
2021/12/06 03:53:01;;;;;;;;;;;;;;;;;;5059345;28;19940;-78
2021/12/06 03:55:29;;;;;;;;;;;;;;;;;;5048482;28;19933;-79
2021/12/06 03:57:56;;;;;;;;;;;;;;;;;;5043545;28;19964;-78
2021/12/06 04:00:23;;;;;;;;;;;;;;;;;;5042541;28;19932;-78
2021/12/06 04:02:50;;;;;;;;;;;;;;;;;;5044604;28;20047;-78
2021/12/06 04:05:17;;;;;;;;;;;;;;;;;;5042887;28;20027;-78
2021/12/06 04:07:44;;;;;;;;;;;;;;;;;;5042509;28;20015;-78
2021/12/06 04:10:11;;;;;;;;;;;;;;;;;;5047157;28;19940;-78
2021/12/06 04:12:39;;;;;;;;;;;;;;;;;;5048792;28;20302;-78
2021/12/06 04:15:07;;;;;;;;;;;;;;;;;;5045652;28;19925;-79
2021/12/06 04:17:34;;;;;;;;;;;;;;;;;;5049154;28;19924;-78
2021/12/06 04:20:01;;;;;;;;;;;;;;;;;;5052640;28;19978;-78
2021/12/06 04:22:28;;;;;;;;;;;;;;;;;;5049086;28;19924;-78
2021/12/06 04:24:58;;;;;;;;;;;;;;;;;;5049123;28;20047;-78
2021/12/06 04:27:25;;;;;;;;;;;;;;;;;;5046278;28;19932;-78
2021/12/06 04:29:52;;;;;;;;;;;;;;;;;;5048743;28;20012;-78
2021/12/06 04:32:19;;;;;;;;;;;;;;;;;;5050800;28;19955;-78
2021/12/06 04:34:46;;;;;;;;;;;;;;;;;;5044449;28;20228;-78
2021/12/06 04:37:13;;;;;;;;;;;;;;;;;;5040899;28;19932;-78
2021/12/06 04:39:40;;;;;;;;;;;;;;;;;;5041019;28;19990;-78
2021/12/06 04:42:07;;;;;;;;;;;;;;;;;;5043443;28;19925;-77
2021/12/06 04:44:34;;;;;;;;;;;;;;;;;;5044346;28;19948;-78
2021/12/06 04:47:01;;;;;;;;;;;;;;;;;;5043866;28;19931;-78
2021/12/06 04:49:29;;;;;;;;;;;;;;;;;;5047238;28;20190;-77
2021/12/06 04:51:56;;;;;;;;;;;;;;;;;;5041360;28;19932;-78
2021/12/06 04:54:23;;;;;;;;;;;;;;;;;;5046994;28;20355;-78
2021/12/06 04:56:50;;;;;;;;;;;;;;;;;;5040685;28;20032;-77
2021/12/06 04:59:17;;;;;;;;;;;;;;;;;;5044750;28;20015;-78
2021/12/06 05:01:45;;;;;;;;;;;;;;;;;;5040965;28;19929;-78
2021/12/06 05:04:12;;;;;;;;;;;;;;;;;;5046478;28;19925;-77
2021/12/06 05:06:39;;;;;;;;;;;;;;;;;;5046359;28;19929;-77
2021/12/06 05:09:06;;;;;;;;;;;;;;;;;;5044304;28;20399;-79
2021/12/06 05:11:33;;;;;;;;;;;;;;;;;;5044828;28;19929;-77
2021/12/06 05:14:02;;;;;;;;;;;;;;;;;;5045820;28;20011;-77
2021/12/06 05:16:29;;;;;;;;;;;;;;;;;;5039770;28;19924;-77
2021/12/06 05:18:56;;;;;;;;;;;;;;;;;;5047439;28;19929;-77
2021/12/06 05:21:23;;;;;;;;;;;;;;;;;;5049348;28;19935;-77
2021/12/06 05:23:50;;;;;;;;;;;;;;;;;;5042116;28;20347;-78
2021/12/06 05:26:17;;;;;;;;;;;;;;;;;;5044872;28;19967;-77
2021/12/06 05:28:48;;;;;;;;;;;;;;;;;;5046287;28;20356;-78
2021/12/06 05:31:19;;;;;;;;;;;;;;;;;;5045375;28;20020;-78
2021/12/06 05:33:46;;;;;;;;;;;;;;;;;;5047144;28;19929;-77
2021/12/06 05:36:13;;;;;;;;;;;;;;;;;;5068855;22;19968;-65
2021/12/06 05:38:40;;;;;;;;;;;;;;;;;;5043469;28;19925;-65
2021/12/06 05:41:07;;;;;;;;;;;;;;;;;;5047904;28;19924;-65
2021/12/06 05:43:34;;;;;;;;;;;;;;;;;;5047833;28;19937;-65
2021/12/06 05:46:01;;;;;;;;;;;;;;;;;;5035781;28;19943;-65
2021/12/06 05:48:28;;;;;;;;;;;;;;;;;;5025984;28;20380;-66
2021/12/06 05:50:55;;;;;;;;;;;;;;;;;;5026707;28;19956;-65
2021/12/06 05:53:23;;;;;;;;;;;;;;;;;;5025662;28;19936;-66
2021/12/06 05:55:49;;;;;;;;;;;;;;;;;;5023718;28;19929;-65
2021/12/06 05:58:16;;;;;;;;;;;;;;;;;;5025986;28;19933;-65
2021/12/06 06:00:43;;;;;;;;;;;;;;;;;;5022992;28;19933;-65
2021/12/06 06:03:10;;;;;;;;;;;;;;;;;;5028522;28;19936;-66
2021/12/06 06:05:37;;;;;;;;;;;;;;;;;;5022000;28;20324;-66
2021/12/06 06:08:04;;;;;;;;;;;;;;;;;;5027094;28;19925;-65
2021/12/06 06:10:31;;;;;;;;;;;;;;;;;;5022558;28;19925;-65
2021/12/06 06:13:00;;;;;;;;;;;;;;;;;;5021170;28;20026;-66
2021/12/06 06:15:29;;;;;;;;;;;;;;;;;;5023545;28;19947;-65
2021/12/06 06:17:57;;;;;;;;;;;;;;;;;;5022693;28;20439;-64
2021/12/06 06:20:24;;;;;;;;;;;;;;;;;;5023321;28;19925;-65
2021/12/06 06:22:51;;;;;;;;;;;;;;;;;;5023908;28;19933;-65
2021/12/06 06:25:18;;;;;;;;;;;;;;;;;;5025224;28;19945;-64
2021/12/06 06:27:45;;;;;;;;;;;;;;;;;;5021720;28;19925;-65
2021/12/06 06:30:12;;;;;;;;;;;;;;;;;;5022552;28;19980;-64
2021/12/06 06:32:39;;;;;;;;;;;;;;;;;;5023227;28;19932;-65
2021/12/06 06:35:06;;;;;;;;;;;;;;;;;;5019832;28;20002;-65
2021/12/06 06:37:33;;;;;;;;;;;;;;;;;;5021697;28;19929;-65
2021/12/06 06:40:00;;;;;;;;;;;;;;;;;;5023111;28;20951;-65
2021/12/06 06:42:27;;;;;;;;;;;;;;;;;;5026778;28;19937;-65
2021/12/06 06:44:54;;;;;;;;;;;;;;;;;;5028198;28;19925;-65
2021/12/06 06:47:21;;;;;;;;;;;;;;;;;;5028742;28;19933;-65
2021/12/06 06:49:48;;;;;;;;;;;;;;;;;;5030632;28;19929;-66
2021/12/06 06:52:15;;;;;;;;;;;;;;;;;;5033576;28;19926;-66
2021/12/06 06:54:42;;;;;;;;;;;;;;;;;;5029459;28;19925;-66
2021/12/06 06:57:08;;;;;;;;;;;;;;;;;;5028115;28;19926;-66
2021/12/06 06:59:35;;;;;;;;;;;;;;;;;;5029482;28;19925;-66
2021/12/06 07:02:02;;;;;;;;;;;;;;;;;;5025170;28;19926;-66
2021/12/06 07:04:29;;;;;;;;;;;;;;;;;;5025734;28;19925;-67
2021/12/06 07:06:56;;;;;;;;;;;;;;;;;;5033232;28;20219;-66
2021/12/06 07:09:23;;;;;;;;;;;;;;;;;;5031440;28;19925;-66
2021/12/06 07:11:51;;;;;;;;;;;;;;;;;;5023125;28;19925;-67
2021/12/06 07:14:18;;;;;;;;;;;;;;;;;;5026160;28;19934;-66
2021/12/06 07:16:45;;;;;;;;;;;;;;;;;;5021599;28;19925;-67
2021/12/06 07:19:12;;;;;;;;;;;;;;;;;;5035536;28;19932;-65
2021/12/06 07:21:39;;;;;;;;;;;;;;;;;;5027437;28;20377;-66
2021/12/06 07:24:06;;;;;;;;;;;;;;;;;;5031025;28;19929;-66
2021/12/06 07:26:33;;;;;;;;;;;;;;;;;;5025844;28;19932;-66
2021/12/06 07:29:01;;;;;;;;;;;;;;;;;;5035522;28;19957;-66
2021/12/06 07:31:28;;;;;;;;;;;;;;;;;;5031549;28;19929;-66
2021/12/06 07:33:54;;;;;;;;;;;;;;;;;;5023800;28;19932;-66
2021/12/06 07:36:21;;;;;;;;;;;;;;;;;;5023482;28;20312;-66
2021/12/06 07:38:50;;;;;;;;;;;;;;;;;;5029160;28;19936;-66
2021/12/06 07:41:17;;;;;;;;;;;;;;;;;;5025052;28;19975;-65
2021/12/06 07:43:44;;;;;;;;;;;;;;;;;;5024922;28;19925;-66
2021/12/06 07:46:11;;;;;;;;;;;;;;;;;;5033112;28;20381;-66
2021/12/06 07:48:38;;;;;;;;;;;;;;;;;;5028948;28;20293;-67
2021/12/06 07:51:06;;;;;;;;;;;;;;;;;;5029879;28;19925;-66
2021/12/06 07:53:33;;;;;;;;;;;;;;;;;;5019691;28;19999;-66
2021/12/06 07:56:00;;;;;;;;;;;;;;;;;;5032222;28;19925;-65
2021/12/06 07:58:29;;;;;;;;;;;;;;;;;;5026539;28;19925;-65
2021/12/06 08:00:56;;;;;;;;;;;;;;;;;;5020178;28;19965;-66
2021/12/06 08:03:26;;;;;;;;;;;;;;;;;;5026704;28;19931;-66
2021/12/06 08:05:53;;;;;;;;;;;;;;;;;;5029215;28;20984;-66
2021/12/06 08:08:20;;;;;;;;;;;;;;;;;;5025530;28;19948;-66
2021/12/06 08:10:47;;;;;;;;;;;;;;;;;;5027075;28;19930;-66
2021/12/06 08:13:14;;;;;;;;;;;;;;;;;;5028348;28;19932;-66
2021/12/06 08:15:41;;;;;;;;;;;;;;;;;;5029381;28;19925;-65
2021/12/06 08:18:08;;;;;;;;;;;;;;;;;;5026619;28;19933;-66
2021/12/06 08:20:35;;;;;;;;;;;;;;;;;;5023374;28;20385;-67
2021/12/06 08:23:02;;;;;;;;;;;;;;;;;;5026649;28;19932;-66
2021/12/06 08:25:29;;;;;;;;;;;;;;;;;;5028054;28;20319;-66
2021/12/06 08:27:56;;;;;;;;;;;;;;;;;;5025640;28;19925;-66
2021/12/06 08:30:25;;;;;;;;;;;;;;;;;;5025315;28;19925;-66
2021/12/06 08:32:52;;;;;;;;;;;;;;;;;;5027555;28;20024;-66
2021/12/06 08:35:19;;;;;;;;;;;;;;;;;;5022983;28;19936;-66
2021/12/06 08:37:46;;;;;;;;;;;;;;;;;;5022811;28;20308;-66
2021/12/06 08:40:13;;;;;;;;;;;;;;;;;;5023885;28;19981;-66
2021/12/06 08:42:41;;;;;;;;;;;;;;;;;;5024497;28;19934;-66
2021/12/06 08:45:08;;;;;;;;;;;;;;;;;;5028221;28;20004;-66
2021/12/06 08:47:35;;;;;;;;;;;;;;;;;;5025154;28;19925;-66
2021/12/06 08:50:02;;;;;;;;;;;;;;;;;;5026582;28;19925;-66
2021/12/06 08:52:29;;;;;;;;;;;;;;;;;;5027498;28;20294;-66
2021/12/06 08:54:56;;;;;;;;;;;;;;;;;;5027353;28;19931;-67
2021/12/06 08:57:23;;;;;;;;;;;;;;;;;;5026264;28;20396;-66
2021/12/06 08:59:50;;;;;;;;;;;;;;;;;;5027540;28;19925;-68
2021/12/06 09:02:17;;;;;;;;;;;;;;;;;;5023815;28;19929;-66
2021/12/06 09:04:44;;;;;;;;;;;;;;;;;;5030757;28;19925;-66
2021/12/06 09:07:12;;;;;;;;;;;;;;;;;;5032364;28;19932;-66
2021/12/06 09:09:45;;;;;;;;;;;;;;;;;;5024665;28;20043;-68
2021/12/06 09:12:12;;;;;;;;;;;;;;;;;;5025106;28;19995;-66
2021/12/06 09:14:39;;;;;;;;;;;;;;;;;;5023956;28;19932;-66
2021/12/06 09:17:06;;;;;;;;;;;;;;;;;;5030474;28;20408;-65
2021/12/06 09:19:34;;;;;;;;;;;;;;;;;;5025648;28;19925;-66
2021/12/06 09:22:01;;;;;;;;;;;;;;;;;;5023344;28;19925;-67
2021/12/06 09:24:28;;;;;;;;;;;;;;;;;;5024614;28;20362;-66
2021/12/06 09:26:55;;;;;;;;;;;;;;;;;;5022319;28;19925;-66
2021/12/06 09:29:24;;;;;;;;;;;;;;;;;;5029009;28;19925;-66
2021/12/06 09:31:51;;;;;;;;;;;;;;;;;;5028282;28;19948;-66
2021/12/06 09:34:18;;;;;;;;;;;;;;;;;;5033334;28;19932;-66
2021/12/06 09:36:45;;;;;;;;;;;;;;;;;;5029525;28;19932;-67
2021/12/06 09:39:13;;;;;;;;;;;;;;;;;;5031746;28;19933;-66
2021/12/06 09:41:40;;;;;;;;;;;;;;;;;;5027576;28;19944;-66
2021/12/06 09:44:09;;;;;;;;;;;;;;;;;;5033465;28;20315;-66
2021/12/06 09:46:37;;;;;;;;;;;;;;;;;;5033293;28;20328;-67
2021/12/06 09:49:04;;;;;;;;;;;;;;;;;;5028583;28;19926;-66
2021/12/06 09:51:31;;;;;;;;;;;;;;;;;;5026125;28;19931;-66
2021/12/06 09:53:57;;;;;;;;;;;;;;;;;;5026879;28;19929;-66
2021/12/06 09:56:24;;;;;;;;;;;;;;;;;;5026447;28;19932;-65
2021/12/06 09:58:51;;;;;;;;;;;;;;;;;;5027111;28;19929;-66
2021/12/06 10:01:20;;;;;;;;;;;;;;;;;;5026421;28;19948;-66
2021/12/06 10:03:48;;;;;;;;;;;;;;;;;;5031996;28;19929;-66
2021/12/06 10:06:15;;;;;;;;;;;;;;;;;;5027990;28;19925;-66
2021/12/06 10:08:44;;;;;;;;;;;;;;;;;;5028554;28;19929;-66
2021/12/06 10:11:11;;;;;;;;;;;;;;;;;;5030854;28;19956;-66
2021/12/06 10:13:39;;;;;;;;;;;;;;;;;;5028073;28;19948;-66
2021/12/06 10:16:06;;;;;;;;;;;;;;;;;;5028850;28;19936;-66
2021/12/06 10:18:32;;;;;;;;;;;;;;;;;;5029079;28;20412;-65
2021/12/06 10:20:59;;;;;;;;;;;;;;;;;;5023485;28;20318;-66
2021/12/06 10:23:26;;;;;;;;;;;;;;;;;;5026721;28;19925;-66
2021/12/06 10:25:53;;;;;;;;;;;;;;;;;;5028033;28;19932;-66
2021/12/06 10:28:22;;;;;;;;;;;;;;;;;;5026865;28;19944;-66
2021/12/06 10:30:49;;;;;;;;;;;;;;;;;;5024719;28;20364;-66
2021/12/06 10:33:16;;;;;;;;;;;;;;;;;;5027704;28;20275;-66
2021/12/06 10:35:43;;;;;;;;;;;;;;;;;;5025575;28;19937;-66
2021/12/06 10:38:10;;;;;;;;;;;;;;;;;;5026881;28;20282;-66
2021/12/06 10:40:37;;;;;;;;;;;;;;;;;;5027443;28;19968;-66
2021/12/06 10:43:04;;;;;;;;;;;;;;;;;;5030992;28;19935;-66
2021/12/06 10:45:31;;;;;;;;;;;;;;;;;;5029619;28;19931;-66
2021/12/06 10:47:58;;;;;;;;;;;;;;;;;;5025065;28;19932;-65
2021/12/06 10:50:25;;;;;;;;;;;;;;;;;;5026451;28;19925;-65
2021/12/06 10:52:52;;;;;;;;;;;;;;;;;;5026152;28;19929;-67
2021/12/06 10:55:19;;;;;;;;;;;;;;;;;;5031441;28;20112;-66
2021/12/06 10:57:46;;;;;;;;;;;;;;;;;;5023719;28;19944;-66
2021/12/06 11:00:13;;;;;;;;;;;;;;;;;;5026561;28;19925;-65
2021/12/06 11:02:40;;;;;;;;;;;;;;;;;;5029518;28;19925;-65
2021/12/06 11:05:07;;;;;;;;;;;;;;;;;;5027747;28;20405;-67
2021/12/06 11:07:35;;;;;;;;;;;;;;;;;;5026747;28;19933;-67
2021/12/06 11:10:02;;;;;;;;;;;;;;;;;;5026123;28;19933;-67
2021/12/06 11:12:29;;;;;;;;;;;;;;;;;;5027979;28;20303;-66
2021/12/06 11:14:56;;;;;;;;;;;;;;;;;;5027314;28;19925;-65
2021/12/06 11:17:23;;;;;;;;;;;;;;;;;;5026953;28;19931;-65
2021/12/06 11:19:51;;;;;;;;;;;;;;;;;;5029402;28;19937;-67
2021/12/06 11:22:18;;;;;;;;;;;;;;;;;;5025924;28;19935;-65
2021/12/06 11:24:46;;;;;;;;;;;;;;;;;;5026310;28;20473;-66
2021/12/06 11:27:13;;;;;;;;;;;;;;;;;;5028572;28;20282;-65
2021/12/06 11:29:40;;;;;;;;;;;;;;;;;;5026440;28;19936;-67
2021/12/06 11:32:07;;;;;;;;;;;;;;;;;;5026136;28;19979;-67
2021/12/06 11:34:34;;;;;;;;;;;;;;;;;;5027135;28;19940;-66
2021/12/06 11:37:01;;;;;;;;;;;;;;;;;;5086928;22;19928;-68
2021/12/06 11:39:28;;;;;;;;;;;;;;;;;;5109174;28;19981;-69
2021/12/06 11:41:55;;;;;;;;;;;;;;;;;;5106500;28;19931;-69
2021/12/06 11:44:22;;;;;;;;;;;;;;;;;;5106496;27;19932;-69
2021/12/06 11:46:49;;;;;;;;;;;;;;;;;;5107901;28;19930;-69
2021/12/06 11:49:16;;;;;;;;;;;;;;;;;;5108085;28;20383;-68
2021/12/06 11:51:42;;;;;;;;;;;;;;;;;;5108000;28;19924;-68
2021/12/06 11:54:09;;;;;;;;;;;;;;;;;;5104147;28;19923;-69
2021/12/06 11:56:42;;;;;;;;;;;;;;;;;;5108658;28;20399;-69
2021/12/06 11:59:09;;;;;;;;;;;;;;;;;;5107301;28;19932;-69
2021/12/06 12:01:37;;;;;;;;;;;;;;;;;;5110684;28;19930;-69
2021/12/06 12:04:04;;;;;;;;;;;;;;;;;;5130011;28;19912;-68
2021/12/06 12:06:32;;;;;;;;;;;;;;;;;;5109511;28;19978;-68
2021/12/06 12:08:59;;;;;;;;;;;;;;;;;;5109486;28;20014;-68
2021/12/06 12:11:26;;;;;;;;;;;;;;;;;;5107132;28;19928;-68
2021/12/06 12:13:56;;;;;;;;;;;;;;;;;;5106220;28;20006;-68
2021/12/06 12:16:23;;;;;;;;;;;;;;;;;;5102751;28;19978;-68
2021/12/06 12:18:50;;;;;;;;;;;;;;;;;;5102953;28;20406;-67
2021/12/06 12:21:17;;;;;;;;;;;;;;;;;;5104986;28;19928;-68
2021/12/06 12:23:44;;;;;;;;;;;;;;;;;;5102840;28;19924;-68
2021/12/06 12:26:13;;;;;;;;;;;;;;;;;;5103990;28;20404;-68
2021/12/06 12:28:48;;;;;;;;;;;;;;;;;;5105550;28;19985;-69
2021/12/06 12:31:16;;;;;;;;;;;;;;;;;;5105755;28;20023;-68
2021/12/06 12:33:43;;;;;;;;;;;;;;;;;;5107684;28;19923;-69
2021/12/06 12:36:10;;;;;;;;;;;;;;;;;;5106790;28;19924;-68
2021/12/06 12:38:38;;;;;;;;;;;;;;;;;;5103231;28;20379;-68
2021/12/06 12:41:05;;;;;;;;;;;;;;;;;;5110827;28;19924;-68
2021/12/06 12:43:32;;;;;;;;;;;;;;;;;;5127000;28;19928;-68
2021/12/06 12:45:59;;;;;;;;;;;;;;;;;;5102558;28;19923;-68
2021/12/06 12:48:26;;;;;;;;;;;;;;;;;;5106290;28;20411;-69
2021/12/06 12:50:53;;;;;;;;;;;;;;;;;;5108577;28;19924;-69
2021/12/06 12:53:20;;;;;;;;;;;;;;;;;;5116231;28;19924;-69
2021/12/06 12:55:49;;;;;;;;;;;;;;;;;;5126747;28;19945;-68
2021/12/06 12:58:16;;;;;;;;;;;;;;;;;;5129934;28;19923;-68
2021/12/06 13:00:43;;;;;;;;;;;;;;;;;;5118989;28;20038;-69
2021/12/06 13:03:10;;;;;;;;;;;;;;;;;;5107207;28;20367;-69
2021/12/06 13:05:37;;;;;;;;;;;;;;;;;;5108650;28;19924;-68
2021/12/06 13:08:04;;;;;;;;;;;;;;;;;;5109338;28;19923;-69
2021/12/06 13:10:31;;;;;;;;;;;;;;;;;;5110948;28;19932;-69
2021/12/06 13:12:58;;;;;;;;;;;;;;;;;;5110206;27;20373;-69
2021/12/06 13:15:25;;;;;;;;;;;;;;;;;;5109446;28;20362;-69
2021/12/06 13:17:53;;;;;;;;;;;;;;;;;;5109517;28;19928;-68
2021/12/06 13:20:25;;;;;;;;;;;;;;;;;;5111977;28;19946;-68
2021/12/06 13:22:52;;;;;;;;;;;;;;;;;;5110508;28;19970;-68
2021/12/06 13:25:19;;;;;;;;;;;;;;;;;;5114246;27;20418;-68
2021/12/06 13:27:46;;;;;;;;;;;;;;;;;;5111320;28;20018;-68
2021/12/06 13:30:17;;;;;;;;;;;;;;;;;;5108142;28;20404;-69
2021/12/06 13:32:44;;;;;;;;;;;;;;;;;;5107400;28;20330;-68
2021/12/06 13:35:11;;;;;;;;;;;;;;;;;;5110911;28;19936;-70
2021/12/06 13:37:38;;;;;;;;;;;;;;;;;;5106972;28;19927;-69
2021/12/06 14:18:06;;;;;;;;;;;;;;;;;;5140874;22;19944;-68
2021/12/06 14:20:33;;;;;;;;;;;;;;;;;;5061952;28;20268;-70
2021/12/06 14:23:03;;;;;;;;;;;;;;;;;;5066563;28;19931;-69
2021/12/06 14:25:30;;;;;;;;;;;;;;;;;;5061794;28;19932;-68
2021/12/06 14:27:57;;;;;;;;;;;;;;;;;;5059751;28;20039;-68
2021/12/06 14:30:24;;;;;;;;;;;;;;;;;;5064507;28;19924;-67
2021/12/06 14:32:51;;;;;;;;;;;;;;;;;;5062483;28;19928;-68
2021/12/06 14:35:18;;;;;;;;;;;;;;;;;;5064369;28;19924;-69
2021/12/06 14:37:45;;;;;;;;;;;;;;;;;;5064812;28;20007;-68
2021/12/06 14:40:12;;;;;;;;;;;;;;;;;;5064191;28;20403;-68
2021/12/06 14:42:39;;;;;;;;;;;;;;;;;;5066275;28;19990;-69
2021/12/06 14:45:06;;;;;;;;;;;;;;;;;;5083014;22;19947;-65
2021/12/06 14:47:34;;;;;;;;;;;;;;;;;;5079012;28;20364;-65
2021/12/06 14:50:04;;;;;;;;;;;;;;;;;;5087269;28;20019;-65
2021/12/06 14:52:34;;;;;;;;;;;;;;;;;;5086778;28;19963;-66
2021/12/06 14:55:06;;;;;;;;;;;;;;;;;;5083904;28;19928;-63
2021/12/06 14:57:33;;;;;;;;;;;;;;;;;;5084234;28;19928;-65
2021/12/06 15:00:00;;;;;;;;;;;;;;;;;;5082814;28;19982;-64
2021/12/06 15:02:27;;;;;;;;;;;;;;;;;;5080702;28;20035;-65
2021/12/06 15:05:02;;;;;;;;;;;;;;;;;;5084864;28;19968;-65
2021/12/06 15:07:29;;;;;;;;;;;;;;;;;;5081206;28;19935;-65
2021/12/06 15:09:56;;;;;;;;;;;;;;;;;;5078923;28;19928;-64
2021/12/06 15:12:23;;;;;;;;;;;;;;;;;;5083468;28;20385;-65
2021/12/06 15:17:26;;;;;;;;;;;;;;;;;;5111803;22;19940;-64
2021/12/06 15:20:02;;;;;;;;;;;;;;;;;;5943926;22;20692;-65
2021/12/06 15:22:30;;;;;;;;;;;;;;;;;;5081116;28;19933;-66
2021/12/06 15:24:57;;;;;;;;;;;;;;;;;;5085286;28;19970;-65
2021/12/06 15:27:24;;;;;;;;;;;;;;;;;;5085049;28;19963;-65
2021/12/06 15:29:51;;;;;;;;;;;;;;;;;;5077527;28;19924;-65
2021/12/06 15:32:19;;;;;;;;;;;;;;;;;;5074388;28;19967;-64
2021/12/06 15:34:47;;;;;;;;;;;;;;;;;;5095303;22;20398;-64
2021/12/06 15:37:14;;;;;;;;;;;;;;;;;;5086511;28;19978;-64
2021/12/06 15:39:43;;;;;;;;;;;;;;;;;;5080525;28;19951;-64
2021/12/06 15:42:12;;;;;;;;;;;;;;;;;;5081989;28;19931;-63
2021/12/06 15:44:39;;;;;;;;;;;;;;;;;;5080398;28;20344;-65
2021/12/06 15:47:06;;;;;;;;;;;;;;;;;;5076960;28;19967;-64
2021/12/06 15:49:33;;;;;;;;;;;;;;;;;;5082210;28;19967;-64
2021/12/06 15:52:00;;;;;;;;;;;;;;;;;;5077856;28;20322;-64
2021/12/06 15:54:27;;;;;;;;;;;;;;;;;;5077745;28;19968;-64
2021/12/06 15:56:54;;;;;;;;;;;;;;;;;;5081838;28;20450;-63
2021/12/06 15:59:21;;;;;;;;;;;;;;;;;;5079212;28;19958;-64
2021/12/06 16:01:48;;;;;;;;;;;;;;;;;;5080842;28;19928;-62
2021/12/06 16:04:15;;;;;;;;;;;;;;;;;;5082125;28;20364;-64
2021/12/06 16:06:42;;;;;;;;;;;;;;;;;;5082435;28;19959;-63
2021/12/06 16:09:12;;;;;;;;;;;;;;;;;;5081103;28;20014;-64
2021/12/06 16:11:39;;;;;;;;;;;;;;;;;;5084570;28;19924;-64
2021/12/06 16:14:06;;;;;;;;;;;;;;;;;;5083587;28;20019;-64
2021/12/06 16:16:33;;;;;;;;;;;;;;;;;;5080826;28;20473;-64
2021/12/06 16:19:00;;;;;;;;;;;;;;;;;;5079215;28;19956;-65
2021/12/06 16:21:27;;;;;;;;;;;;;;;;;;5081598;28;19975;-64
2021/12/06 16:23:54;;;;;;;;;;;;;;;;;;5077815;28;20423;-64
2021/12/06 16:26:22;;;;;;;;;;;;;;;;;;5083835;28;20014;-64
2021/12/06 16:28:49;;;;;;;;;;;;;;;;;;5082839;28;19928;-64
2021/12/06 16:31:16;;;;;;;;;;;;;;;;;;5081091;28;19951;-63
2021/12/06 16:33:44;;;;;;;;;;;;;;;;;;5082591;28;20020;-63
2021/12/06 16:36:11;;;;;;;;;;;;;;;;;;5078184;28;19931;-64
2021/12/06 16:38:38;;;;;;;;;;;;;;;;;;5077610;28;19974;-63
2021/12/06 16:41:05;;;;;;;;;;;;;;;;;;5076743;28;20022;-63
2021/12/06 16:43:32;;;;;;;;;;;;;;;;;;5080666;28;20389;-63
2021/12/06 16:46:00;;;;;;;;;;;;;;;;;;5078497;28;19958;-63
2021/12/06 16:48:27;;;;;;;;;;;;;;;;;;5078517;28;20290;-63
2021/12/06 16:50:54;;;;;;;;;;;;;;;;;;5076833;28;20035;-64
2021/12/06 16:53:26;;;;;;;;;;;;;;;;;;5079455;28;19924;-64
2021/12/06 16:55:54;;;;;;;;;;;;;;;;;;5083667;28;19923;-63
2021/12/06 16:58:21;;;;;;;;;;;;;;;;;;5081654;28;19978;-63
2021/12/06 17:00:48;;;;;;;;;;;;;;;;;;5083959;28;19924;-65
2021/12/06 17:03:15;;;;;;;;;;;;;;;;;;5079436;28;19924;-64
2021/12/06 17:05:42;;;;;;;;;;;;;;;;;;5079987;28;19932;-64
2021/12/06 17:08:08;;;;;;;;;;;;;;;;;;5082175;28;19924;-64
2021/12/06 17:10:39;;;;;;;;;;;;;;;;;;5084179;28;19928;-65
2021/12/06 17:13:07;;;;;;;;;;;;;;;;;;5077853;28;19935;-64
2021/12/06 17:15:34;;;;;;;;;;;;;;;;;;5075443;28;19936;-65
2021/12/06 17:18:03;;;;;;;;;;;;;;;;;;5079110;28;19924;-65
2021/12/06 17:20:29;;;;;;;;;;;;;;;;;;5078162;28;19968;-64
2021/12/06 17:22:56;;;;;;;;;;;;;;;;;;5081253;28;20392;-64
2021/12/06 17:25:23;;;;;;;;;;;;;;;;;;5082350;28;20292;-65
2021/12/06 17:27:50;;;;;;;;;;;;;;;;;;5084579;28;20332;-64
2021/12/06 17:30:22;;;;;;;;;;;;;;;;;;5082320;28;19948;-65
2021/12/06 17:32:49;;;;;;;;;;;;;;;;;;5082604;28;19930;-64